Time;durP1;ratioP1;P1;durP2;ratioP2;P2;SDS_P1;SDS_P2;PMS_P1;PMS_P2;Temp;Humidity;BMP_temperature;BMP_pressure;BME280_temperature;BME280_humidity;BME280_pressure;Samples;Min_cycle;Max_cycle;Signal;HPM_P1;HPM_P2
2021/11/27 00:01:40;;;;;;;;;2.50;2.25;;;;;13.17;100.00;98471.97;5065274;28;45169;-79
2021/11/27 00:04:07;;;;;;;;;5.00;2.75;;;;;13.19;100.00;98475.25;5067194;28;45301;-81
2021/11/27 00:06:32;;;;;;;;;5.50;3.00;;;;;13.27;100.00;98475.22;5070807;27;45202;-81
2021/11/27 00:08:58;;;;;;;;;2.50;2.25;;;;;13.26;100.00;98462.97;5056563;28;45556;-81
2021/11/27 00:11:25;;;;;;;;;5.75;2.00;;;;;13.43;100.00;98469.78;5061056;28;45955;-80
2021/11/27 00:13:51;;;;;;;;;3.25;2.75;;;;;13.14;100.00;98466.16;5063818;28;45461;-80
2021/11/27 00:16:16;;;;;;;;;3.00;2.00;;;;;13.09;100.00;98458.72;5058879;28;45467;-80
2021/11/27 00:18:42;;;;;;;;;3.00;2.00;;;;;13.11;100.00;98459.34;5064055;28;45457;-81
2021/11/27 00:21:11;;;;;;;;;6.00;2.75;;;;;13.24;100.00;98467.59;5057203;28;46215;-81
2021/11/27 00:23:38;;;;;;;;;4.75;3.00;;;;;13.25;100.00;98460.47;5054763;28;45770;-80
2021/11/27 00:26:08;;;;;;;;;3.50;1.75;;;;;13.20;100.00;98461.00;5053421;28;45477;-81
2021/11/27 00:28:33;;;;;;;;;5.00;3.00;;;;;13.15;100.00;98468.66;5054440;28;45456;-82
2021/11/27 00:31:03;;;;;;;;;2.75;1.00;;;;;12.92;100.00;98462.47;5073522;28;48238;-81
2021/11/27 00:33:29;;;;;;;;;4.50;1.00;;;;;12.70;100.00;98469.38;5059106;28;45486;-81
2021/11/27 00:35:54;;;;;;;;;2.25;2.00;;;;;12.74;100.00;98471.50;5055469;28;45445;-81
2021/11/27 00:38:20;;;;;;;;;3.25;1.75;;;;;12.60;100.00;98474.03;5061684;28;45438;-81
2021/11/27 00:40:46;;;;;;;;;7.00;2.75;;;;;12.56;100.00;98462.97;5066222;28;45487;-80
2021/11/27 00:43:12;;;;;;;;;2.25;1.00;;;;;12.62;100.00;98470.22;5060271;28;45358;-81
2021/11/27 00:45:40;;;;;;;;;4.00;2.00;;;;;12.40;100.00;98467.50;5058520;28;45247;-81
2021/11/27 00:48:09;;;;;;;;;3.00;1.75;;;;;12.53;100.00;98468.63;5062759;28;45339;-81
2021/11/27 00:50:50;;;;;;;;;2.50;2.00;;;;;12.59;100.00;98465.25;5064528;28;46199;-81
2021/11/27 00:53:18;;;;;;;;;2.00;1.75;;;;;12.59;100.00;98467.09;5080213;28;45223;-81
2021/11/27 00:55:44;;;;;;;;;2.50;2.00;;;;;12.58;100.00;98470.72;5070732;28;45374;-81
2021/11/27 00:58:10;;;;;;;;;5.25;1.00;;;;;12.44;100.00;98482.03;5074381;28;45483;-81
2021/11/27 01:00:40;;;;;;;;;5.50;2.00;;;;;12.46;100.00;98486.19;5080216;28;46477;-81
2021/11/27 01:03:08;;;;;;;;;5.50;2.00;;;;;12.42;100.00;98476.91;5066990;28;45189;-81
2021/11/27 01:05:35;;;;;;;;;3.50;2.00;;;;;12.48;100.00;98485.97;5067679;28;45293;-81
2021/11/27 01:08:01;;;;;;;;;2.50;1.00;;;;;12.15;100.00;98480.78;5078011;28;45381;-81
2021/11/27 01:10:31;;;;;;;;;2.50;1.00;;;;;12.20;100.00;98486.38;5075674;28;46176;-81
2021/11/27 01:12:56;;;;;;;;;4.00;1.00;;;;;11.75;100.00;98472.91;5076699;28;45322;-80
2021/11/27 01:15:28;;;;;;;;;0.25;0.25;;;;;11.94;100.00;98461.97;5064111;28;45968;-81
2021/11/27 01:17:54;;;;;;;;;1.00;1.00;;;;;11.85;100.00;98458.53;5042317;28;45283;-81
2021/11/27 01:20:23;;;;;;;;;1.00;1.00;;;;;12.06;100.00;98449.22;5047941;28;45340;-81
2021/11/27 01:22:49;;;;;;;;;1.00;1.00;;;;;11.89;100.00;98457.19;5049682;28;45248;-80
2021/11/27 01:25:16;;;;;;;;;0.00;0.00;;;;;11.91;100.00;98452.56;5067719;28;45457;-81
2021/11/27 01:27:41;;;;;;;;;1.25;0.50;;;;;11.93;100.00;98447.91;5072447;27;45463;-81
2021/11/27 01:30:10;;;;;;;;;3.50;1.00;;;;;12.06;100.00;98442.13;5062849;28;45561;-80
2021/11/27 01:32:36;;;;;;;;;0.75;0.75;;;;;11.88;100.00;98433.56;5061821;28;45626;-81
2021/11/27 01:35:03;;;;;;;;;0.00;0.00;;;;;11.53;100.00;98438.22;5063105;28;45766;-81
2021/11/27 01:37:29;;;;;;;;;1.75;0.00;;;;;10.94;100.00;98444.56;5062752;28;45413;-80
2021/11/27 01:39:54;;;;;;;;;1.00;0.00;;;;;10.81;100.00;98449.50;5043999;28;45464;-80
2021/11/27 01:42:20;;;;;;;;;0.00;0.00;;;;;10.69;100.00;98448.16;5055360;28;45546;-80
2021/11/27 01:44:45;;;;;;;;;0.00;0.00;;;;;10.44;100.00;98445.44;5054181;28;45457;-80
2021/11/27 01:47:11;;;;;;;;;2.25;0.00;;;;;10.36;100.00;98453.31;5065414;28;45468;-80
2021/11/27 01:49:36;;;;;;;;;0.00;0.00;;;;;10.12;100.00;98440.78;5054094;28;45867;-80
2021/11/27 01:52:04;;;;;;;;;1.25;1.00;;;;;10.10;100.00;98458.59;5067002;28;45386;-81
2021/11/27 01:54:29;;;;;;;;;0.25;0.25;;;;;9.91;100.00;98452.69;5077604;28;45263;-80
2021/11/27 01:56:58;;;;;;;;;1.00;0.00;;;;;9.99;100.00;98447.47;5072986;28;45546;-80
2021/11/27 01:59:26;;;;;;;;;1.00;1.00;;;;;9.95;100.00;98454.84;5062200;28;45505;-80
2021/11/27 02:01:52;;;;;;;;;1.00;1.00;;;;;10.07;100.00;98450.97;5061690;28;45622;-80
2021/11/27 02:04:18;;;;;;;;;2.00;0.00;;;;;10.02;100.00;98447.97;5057006;28;45738;-80
2021/11/27 02:06:44;;;;;;;;;2.00;2.00;;;;;10.13;100.00;98452.16;5060788;28;45505;-80
2021/11/27 02:09:18;;;;;;;;;5.00;1.75;;;;;10.11;100.00;98454.94;5049863;28;45395;-80
2021/11/27 02:11:43;;;;;;;;;1.00;0.00;;;;;9.96;100.00;98459.16;5067543;28;45470;-80
2021/11/27 02:14:10;;;;;;;;;2.00;0.50;;;;;10.04;100.00;98443.38;5065974;28;45374;-81
2021/11/27 02:16:38;;;;;;;;;0.00;0.00;;;;;10.07;100.00;98439.59;5065027;28;45248;-81
2021/11/27 02:19:04;;;;;;;;;1.00;1.00;;;;;9.98;100.00;98451.91;5074203;28;45522;-80
2021/11/27 02:21:29;;;;;;;;;4.25;1.00;;;;;10.09;100.00;98443.75;5052674;28;45803;-80
2021/11/27 02:23:56;;;;;;;;;5.00;1.00;;;;;10.02;100.00;98445.34;5064605;28;45453;-80
2021/11/27 02:26:26;;;;;;;;;2.00;0.00;;;;;9.97;100.00;98444.16;5059290;28;45587;-80
2021/11/27 02:28:57;;;;;;;;;1.25;1.25;;;;;9.81;100.00;98429.06;5056398;28;46281;-80
2021/11/27 02:31:24;;;;;;;;;1.25;0.00;;;;;9.80;100.00;98430.06;5057648;28;45577;-80
2021/11/27 02:33:52;;;;;;;;;0.25;0.00;;;;;10.00;100.00;98420.13;5059536;27;45351;-80
2021/11/27 02:36:18;;;;;;;;;0.00;0.00;;;;;10.01;100.00;98414.72;5056684;28;45912;-80
2021/11/27 02:38:43;;;;;;;;;0.25;0.25;;;;;10.05;100.00;98415.19;5055135;28;46443;-80
2021/11/27 02:41:10;;;;;;;;;0.00;0.00;;;;;10.07;100.00;98414.06;5060007;28;45375;-80
2021/11/27 02:43:36;;;;;;;;;2.00;0.00;;;;;10.27;100.00;98416.50;5060355;28;45364;-80
2021/11/27 02:46:02;;;;;;;;;2.00;0.00;;;;;10.43;100.00;98406.00;5065477;28;45421;-80
2021/11/27 02:48:28;;;;;;;;;0.00;0.00;;;;;10.18;100.00;98404.25;5075548;28;46521;-80
2021/11/27 02:50:53;;;;;;;;;0.50;0.00;;;;;10.11;100.00;98399.56;5061660;28;45519;-80
2021/11/27 02:53:18;;;;;;;;;0.00;0.00;;;;;10.14;100.00;98394.00;5082221;28;45913;-80
2021/11/27 02:55:44;;;;;;;;;0.00;0.00;;;;;10.07;100.00;98405.31;5073129;28;44843;-80
2021/11/27 02:58:10;;;;;;;;;0.75;0.00;;;;;9.94;100.00;98399.66;5062796;28;46094;-80
2021/11/27 03:00:36;;;;;;;;;1.50;0.75;;;;;10.04;100.00;98405.63;5077613;28;45281;-80
2021/11/27 03:03:01;;;;;;;;;0.00;0.00;;;;;9.92;100.00;98406.91;5071748;28;45292;-80
2021/11/27 03:05:27;;;;;;;;;0.00;0.00;;;;;10.02;100.00;98389.13;5052886;28;45505;-80
2021/11/27 03:07:52;;;;;;;;;0.50;0.50;;;;;9.95;100.00;98393.38;5055203;28;46298;-80
2021/11/27 03:10:19;;;;;;;;;0.00;0.00;;;;;9.97;100.00;98388.78;5049696;28;45224;-80
2021/11/27 03:12:45;;;;;;;;;0.00;0.00;;;;;9.94;100.00;98389.09;5054701;28;45507;-80
2021/11/27 03:15:14;;;;;;;;;2.00;0.00;;;;;9.85;100.00;98390.88;5069782;28;45355;-80
2021/11/27 03:17:41;;;;;;;;;1.00;0.00;;;;;9.92;100.00;98380.53;5070417;28;47018;-80
2021/11/27 03:20:08;;;;;;;;;0.00;0.00;;;;;9.94;100.00;98389.94;5076101;28;45263;-80
2021/11/27 03:22:33;;;;;;;;;2.00;0.00;;;;;9.82;100.00;98377.19;5078442;28;45579;-80
2021/11/27 03:24:59;;;;;;;;;3.50;1.00;;;;;9.79;100.00;98380.97;5062017;28;45359;-80
2021/11/27 03:27:24;;;;;;;;;0.00;0.00;;;;;9.86;100.00;98381.16;5059134;28;45528;-80
2021/11/27 03:29:50;;;;;;;;;0.00;0.00;;;;;9.87;100.00;98372.25;5062602;28;45424;-80
2021/11/27 03:32:17;;;;;;;;;1.50;0.00;;;;;9.90;100.00;98378.06;5055912;28;45506;-80
2021/11/27 03:34:45;;;;;;;;;1.50;0.00;;;;;9.79;100.00;98365.16;5073531;28;45432;-80
2021/11/27 03:37:11;;;;;;;;;0.25;0.00;;;;;9.77;100.00;98378.47;5080037;28;45604;-80
2021/11/27 03:39:37;;;;;;;;;1.00;1.00;;;;;9.71;100.00;98373.00;5070418;28;45412;-80
2021/11/27 03:42:04;;;;;;;;;0.00;0.00;;;;;9.67;100.00;98359.31;5074275;28;45350;-80
2021/11/27 03:44:30;;;;;;;;;4.00;1.00;;;;;9.62;100.00;98366.88;5081105;28;45641;-81
2021/11/27 03:46:59;;;;;;;;;0.50;0.50;;;;;9.61;100.00;98357.31;5068014;28;45485;-81
2021/11/27 03:49:26;;;;;;;;;0.00;0.00;;;;;9.67;100.00;98356.66;5079086;28;45301;-80
2021/11/27 03:51:52;;;;;;;;;0.25;0.00;;;;;9.53;100.00;98351.16;5081705;28;45353;-81
2021/11/27 03:54:17;;;;;;;;;0.00;0.00;;;;;9.52;100.00;98349.50;5078746;28;45452;-80
2021/11/27 03:56:43;;;;;;;;;1.00;1.00;;;;;9.49;100.00;98348.00;5071508;28;46215;-81
2021/11/27 03:59:09;;;;;;;;;0.75;0.75;;;;;9.51;100.00;98348.69;5061527;28;45224;-81
2021/11/27 04:01:34;;;;;;;;;1.00;0.00;;;;;9.46;100.00;98331.69;5072287;28;45581;-80
2021/11/27 04:04:03;;;;;;;;;0.00;0.00;;;;;9.44;100.00;98341.56;5060425;28;45458;-80
2021/11/27 04:06:30;;;;;;;;;0.00;0.00;;;;;9.41;100.00;98328.69;5069157;28;45435;-80
2021/11/27 04:08:58;;;;;;;;;0.00;0.00;;;;;9.36;100.00;98334.44;5079099;28;45313;-80
2021/11/27 04:11:23;;;;;;;;;1.00;0.00;;;;;9.22;100.00;98334.97;5080891;27;45219;-80
2021/11/27 04:13:49;;;;;;;;;2.00;0.00;;;;;9.21;100.00;98328.06;5069640;28;45508;-80
2021/11/27 04:16:14;;;;;;;;;0.00;0.00;;;;;9.14;100.00;98332.28;5061869;28;46434;-80
2021/11/27 04:18:40;;;;;;;;;3.00;0.50;;;;;9.10;100.00;98320.44;5060359;28;45352;-80
2021/11/27 04:21:05;;;;;;;;;0.00;0.00;;;;;9.10;100.00;98308.09;5059408;28;45366;-80
2021/11/27 04:23:31;;;;;;;;;0.25;0.00;;;;;8.98;100.00;98306.69;5060316;28;45569;-80
2021/11/27 04:25:57;;;;;;;;;2.00;0.00;;;;;8.91;100.00;98301.19;5064712;28;46398;-80
2021/11/27 04:28:22;;;;;;;;;0.00;0.00;;;;;8.88;100.00;98305.94;5080591;28;45204;-80
2021/11/27 04:30:47;;;;;;;;;0.00;0.00;;;;;8.93;100.00;98304.47;5081511;28;45454;-80
2021/11/27 04:33:13;;;;;;;;;1.25;0.00;;;;;8.84;100.00;98297.50;5078470;28;45525;-80
2021/11/27 04:35:39;;;;;;;;;0.75;0.00;;;;;8.98;100.00;98317.19;5073013;28;45978;-80
2021/11/27 04:38:05;;;;;;;;;0.00;0.00;;;;;9.02;100.00;98313.25;5080397;28;45544;-80
2021/11/27 04:40:32;;;;;;;;;0.00;0.00;;;;;9.05;100.00;98323.50;5078153;28;45652;-80
2021/11/27 04:42:58;;;;;;;;;0.00;0.00;;;;;8.71;100.00;98318.13;5065493;28;45398;-80
2021/11/27 04:45:25;;;;;;;;;3.25;0.00;;;;;8.71;100.00;98315.50;5077765;28;45399;-80
2021/11/27 04:47:50;;;;;;;;;0.00;0.00;;;;;8.82;100.00;98310.00;5070687;28;45663;-80
2021/11/27 04:50:18;;;;;;;;;1.50;0.00;;;;;8.71;100.00;98312.88;5055362;28;45290;-80
2021/11/27 04:52:45;;;;;;;;;0.50;0.00;;;;;8.86;100.00;98327.13;5056773;28;45445;-80
2021/11/27 04:55:11;;;;;;;;;1.00;0.00;;;;;8.99;100.00;98318.84;5064351;28;46200;-80
2021/11/27 04:57:37;;;;;;;;;0.00;0.00;;;;;8.84;100.00;98323.00;5067600;28;45271;-80
2021/11/27 05:00:08;;;;;;;;;0.00;0.00;;;;;8.73;100.00;98315.34;5060175;28;45410;-80
2021/11/27 05:02:33;;;;;;;;;4.00;0.25;;;;;8.75;100.00;98322.09;5067917;28;45503;-80
2021/11/27 05:04:58;;;;;;;;;0.50;0.00;;;;;8.77;100.00;98317.50;5070666;28;45545;-80
2021/11/27 05:07:24;;;;;;;;;1.00;0.00;;;;;8.81;100.00;98324.16;5076344;28;45292;-80
2021/11/27 05:09:49;;;;;;;;;0.00;0.00;;;;;8.84;100.00;98310.66;5066480;28;45932;-80
2021/11/27 05:12:14;;;;;;;;;0.00;0.00;;;;;8.97;100.00;98308.47;5055246;28;45278;-80
2021/11/27 05:14:40;;;;;;;;;0.00;0.00;;;;;9.27;100.00;98312.47;5067614;28;45560;-80
2021/11/27 05:17:05;;;;;;;;;0.00;0.00;;;;;9.17;100.00;98306.50;5059058;28;45302;-80
2021/11/27 05:19:31;;;;;;;;;0.00;0.00;;;;;9.09;100.00;98295.06;5059716;28;45242;-80
2021/11/27 05:21:56;;;;;;;;;0.50;0.00;;;;;8.95;100.00;98289.38;5079124;28;45318;-80
2021/11/27 05:24:22;;;;;;;;;0.00;0.00;;;;;8.88;100.00;98290.97;5079432;28;45226;-80
2021/11/27 05:26:47;;;;;;;;;1.25;0.00;;;;;8.79;100.00;98298.94;5071250;27;45459;-80
2021/11/27 05:29:13;;;;;;;;;0.75;0.00;;;;;8.68;100.00;98278.97;5060177;28;45241;-80
2021/11/27 05:31:38;;;;;;;;;0.00;0.00;;;;;8.77;100.00;98258.81;5062051;28;45251;-80
2021/11/27 05:36:35;;;;;;;;;0.00;0.00;;;;;8.92;100.00;98257.28;5078986;28;45208;-80
2021/11/27 05:39:01;;;;;;;;;2.00;1.00;;;;;9.25;100.00;98247.78;5081998;28;45406;-80
2021/11/27 05:41:27;;;;;;;;;1.00;0.00;;;;;9.35;100.00;98261.66;5071769;27;45391;-80
2021/11/27 05:43:54;;;;;;;;;0.00;0.00;;;;;9.29;100.00;98264.91;5059235;28;45348;-80
2021/11/27 05:46:20;;;;;;;;;1.00;0.00;;;;;9.15;100.00;98258.41;5057712;28;45752;-80
2021/11/27 05:48:45;;;;;;;;;1.25;0.00;;;;;9.25;100.00;98263.59;5060308;28;45373;-80
2021/11/27 05:51:11;;;;;;;;;0.00;0.00;;;;;9.25;100.00;98263.59;5059024;28;45559;-80
2021/11/27 05:53:36;;;;;;;;;0.00;0.00;;;;;9.31;100.00;98250.59;5073024;28;46418;-80
2021/11/27 05:56:02;;;;;;;;;1.50;0.00;;;;;9.32;100.00;98262.78;5062530;28;45472;-80
2021/11/27 05:58:27;;;;;;;;;0.00;0.00;;;;;9.60;100.00;98262.59;5075266;28;45290;-80
2021/11/27 06:00:52;;;;;;;;;0.25;0.25;;;;;9.33;100.00;98275.00;5071119;28;45484;-80
2021/11/27 06:03:18;;;;;;;;;0.75;0.75;;;;;9.31;100.00;98265.59;5069202;27;45452;-80
2021/11/27 06:05:45;;;;;;;;;3.75;0.00;;;;;9.60;100.00;98263.44;5078585;28;45437;-80
2021/11/27 06:08:10;;;;;;;;;0.00;0.00;;;;;9.26;100.00;98273.13;5081899;27;45398;-80
2021/11/27 06:10:37;;;;;;;;;2.50;0.00;;;;;9.36;100.00;98271.22;5049142;28;45513;-80
2021/11/27 06:13:03;;;;;;;;;4.00;1.00;;;;;9.28;100.00;98273.81;5068862;28;46244;-80
2021/11/27 06:15:29;;;;;;;;;2.00;0.00;;;;;9.18;100.00;98257.28;5063108;28;45593;-80
2021/11/27 06:17:54;;;;;;;;;0.25;0.25;;;;;9.26;100.00;98262.59;5063258;28;45311;-80
2021/11/27 06:20:22;;;;;;;;;0.00;0.00;;;;;9.36;100.00;98258.88;5082354;28;45524;-80
2021/11/27 06:22:48;;;;;;;;;0.25;0.25;;;;;9.29;100.00;98254.38;5080271;28;46167;-81
2021/11/27 06:25:14;;;;;;;;;0.00;0.00;;;;;9.12;100.00;98263.97;5076668;28;45437;-80
2021/11/27 06:27:39;;;;;;;;;5.25;0.00;;;;;9.11;100.00;98269.41;5077478;27;45673;-80
2021/11/27 06:30:06;;;;;;;;;0.25;0.00;;;;;9.22;100.00;98250.72;5062204;28;45323;-80
2021/11/27 06:32:32;;;;;;;;;0.00;0.00;;;;;9.14;100.00;98243.59;5077685;28;47118;-79
2021/11/27 06:34:58;;;;;;;;;3.50;0.00;;;;;9.26;100.00;98258.16;5083096;28;45692;-80
2021/11/27 06:37:24;;;;;;;;;0.00;0.00;;;;;9.29;100.00;98251.75;5073033;28;45339;-80
2021/11/27 06:39:50;;;;;;;;;4.00;0.00;;;;;9.28;100.00;98263.28;5062000;28;45571;-80
2021/11/27 06:42:17;;;;;;;;;1.75;0.00;;;;;9.28;100.00;98247.47;5065080;28;45376;-80
2021/11/27 06:44:48;;;;;;;;;2.00;1.00;;;;;9.37;100.00;98243.91;5064157;28;45688;-80
2021/11/27 06:47:15;;;;;;;;;1.50;0.00;;;;;9.43;100.00;98251.16;5062495;28;45521;-80
2021/11/27 06:49:41;;;;;;;;;1.00;1.00;;;;;9.50;100.00;98246.09;5068344;28;45433;-80
2021/11/27 06:52:07;;;;;;;;;2.00;0.00;;;;;9.45;100.00;98251.84;5081989;27;45380;-80
2021/11/27 06:54:33;;;;;;;;;0.50;0.00;;;;;9.41;100.00;98252.31;5081814;28;45464;-80
2021/11/27 06:56:58;;;;;;;;;2.00;1.00;;;;;9.29;100.00;98267.53;5065646;28;45475;-80
2021/11/27 06:59:23;;;;;;;;;0.00;0.00;;;;;9.08;100.00;98243.41;5077371;27;45385;-80
2021/11/27 07:01:49;;;;;;;;;1.00;0.00;;;;;9.09;100.00;98264.31;5073535;27;45571;-80
2021/11/27 07:04:16;;;;;;;;;5.50;1.00;;;;;8.91;100.00;98267.00;5060251;28;45457;-80
2021/11/27 07:06:41;;;;;;;;;0.00;0.00;;;;;8.84;100.00;98257.19;5078059;28;45288;-81
2021/11/27 07:09:07;;;;;;;;;0.00;0.00;;;;;8.78;100.00;98253.38;5067536;28;45335;-80
2021/11/27 07:11:32;;;;;;;;;0.00;0.00;;;;;8.73;100.00;98239.88;5061330;28;45301;-80
2021/11/27 07:13:57;;;;;;;;;6.00;0.00;;;;;8.62;100.00;98238.31;5072261;28;45476;-80
2021/11/27 07:16:23;;;;;;;;;0.00;0.00;;;;;8.68;100.00;98236.03;5062841;28;45235;-80
2021/11/27 07:18:48;;;;;;;;;0.50;0.00;;;;;8.63;100.00;98252.28;5075395;28;45286;-80
2021/11/27 07:21:14;;;;;;;;;3.25;0.00;;;;;8.66;100.00;98245.88;5081141;28;47462;-80
2021/11/27 07:23:39;;;;;;;;;2.00;0.50;;;;;8.74;100.00;98248.59;5081815;27;45247;-80
2021/11/27 07:26:04;;;;;;;;;1.00;0.00;;;;;8.71;100.00;98267.31;5082773;28;45570;-80
2021/11/27 07:28:30;;;;;;;;;1.75;0.00;;;;;8.66;100.00;98261.66;5066775;28;45505;-80
2021/11/27 07:30:55;;;;;;;;;1.25;0.00;;;;;8.63;100.00;98253.13;5077658;28;45540;-80
2021/11/27 07:33:20;;;;;;;;;0.50;0.00;;;;;8.93;100.00;98257.09;5060857;28;45419;-80
2021/11/27 07:35:47;;;;;;;;;0.25;0.00;;;;;9.04;100.00;98263.09;5061598;28;45472;-81
2021/11/27 07:38:12;;;;;;;;;0.25;0.25;;;;;9.04;100.00;98263.94;5060917;28;45634;-81
2021/11/27 07:40:37;;;;;;;;;0.00;0.00;;;;;9.18;100.00;98254.66;5060880;28;46242;-80
2021/11/27 07:43:05;;;;;;;;;0.00;0.00;;;;;9.19;100.00;98245.78;5060810;28;45414;-80
2021/11/27 07:45:33;;;;;;;;;0.00;0.00;;;;;9.07;100.00;98261.00;5064819;28;45252;-81
2021/11/27 07:47:58;;;;;;;;;1.25;0.50;;;;;10.24;100.00;98259.38;5078651;28;45236;-80
2021/11/27 07:50:24;;;;;;;;;3.50;0.25;;;;;10.33;100.00;98247.88;5060164;28;46362;-80
2021/11/27 07:52:49;;;;;;;;;0.00;0.00;;;;;10.13;100.00;98257.84;5067907;28;45282;-80
2021/11/27 07:55:15;;;;;;;;;0.75;0.00;;;;;9.89;100.00;98257.78;5075421;28;45409;-80
2021/11/27 07:57:40;;;;;;;;;0.00;0.00;;;;;9.80;100.00;98257.91;5060766;28;45709;-80
2021/11/27 08:00:07;;;;;;;;;4.00;0.00;;;;;9.76;100.00;98257.41;5059848;28;45577;-81
2021/11/27 08:02:33;;;;;;;;;0.75;0.50;;;;;9.71;100.00;98255.25;5072280;28;45776;-80
2021/11/27 08:04:58;;;;;;;;;0.25;0.00;;;;;9.59;100.00;98271.50;5063093;28;45357;-79
2021/11/27 08:07:23;;;;;;;;;1.00;0.00;;;;;9.66;100.00;98262.78;5065988;28;45366;-78
2021/11/27 08:09:49;;;;;;;;;2.00;0.00;;;;;9.74;100.00;98256.75;5060205;28;46336;-79
2021/11/27 08:12:14;;;;;;;;;1.00;1.00;;;;;9.52;100.00;98265.22;5063159;28;45417;-80
2021/11/27 08:14:41;;;;;;;;;2.00;0.00;;;;;9.47;100.00;98262.22;5062345;28;45838;-79
2021/11/27 08:17:06;;;;;;;;;0.00;0.00;;;;;9.38;100.00;98261.34;5061689;28;45365;-79
2021/11/27 08:19:31;;;;;;;;;1.25;1.00;;;;;9.43;100.00;98269.59;5081151;28;45380;-79
2021/11/27 08:21:57;;;;;;;;;0.00;0.00;;;;;9.52;100.00;98265.22;5079586;28;45374;-79
2021/11/27 08:24:24;;;;;;;;;0.00;0.00;;;;;9.59;100.00;98272.31;5068749;28;45396;-79
2021/11/27 08:26:50;;;;;;;;;1.25;0.75;;;;;9.48;100.00;98267.31;5062464;28;45840;-80
2021/11/27 08:29:17;;;;;;;;;1.00;1.00;;;;;9.26;100.00;98276.59;5056268;28;46403;-79
2021/11/27 08:31:43;;;;;;;;;2.00;0.00;;;;;9.29;100.00;98260.47;5061881;28;45566;-80
2021/11/27 08:34:08;;;;;;;;;0.25;0.25;;;;;9.46;100.00;98261.41;5072255;28;45386;-79
2021/11/27 08:36:34;;;;;;;;;1.00;0.25;;;;;9.58;100.00;98259.28;5077432;28;45214;-80
2021/11/27 08:38:59;;;;;;;;;1.00;0.00;;;;;9.70;100.00;98264.13;5077125;28;45208;-80
2021/11/27 08:41:25;;;;;;;;;1.00;0.75;;;;;9.76;100.00;98275.84;5076608;28;45239;-80
2021/11/27 08:43:50;;;;;;;;;1.00;0.00;;;;;9.62;100.00;98282.56;5080584;28;45318;-79
2021/11/27 08:46:16;;;;;;;;;1.00;0.00;;;;;9.81;100.00;98283.28;5086250;28;45336;-82
2021/11/27 08:48:42;;;;;;;;;0.75;0.75;;;;;9.74;100.00;98280.47;5079454;27;45310;-79
2021/11/27 08:51:10;;;;;;;;;0.00;0.00;;;;;9.70;100.00;98287.03;5075114;28;45436;-80
2021/11/27 08:53:37;;;;;;;;;2.00;0.00;;;;;9.91;100.00;98273.44;5082562;28;44827;-80
2021/11/27 08:56:08;;;;;;;;;2.00;0.25;;;;;10.08;100.00;98280.41;5086262;28;44733;-81
2021/11/27 08:58:35;;;;;;;;;1.00;0.00;;;;;10.07;100.00;98278.75;5072111;28;45450;-80
2021/11/27 09:01:00;;;;;;;;;0.00;0.00;;;;;10.12;100.00;98285.19;5063567;28;45681;-80
2021/11/27 09:03:26;;;;;;;;;0.00;0.00;;;;;10.10;100.00;98283.72;5062381;28;45532;-83
2021/11/27 09:05:51;;;;;;;;;0.00;0.00;;;;;10.02;100.00;98283.69;5062319;28;45394;-82
2021/11/27 09:08:17;;;;;;;;;1.00;0.00;;;;;10.01;100.00;98274.16;5057084;28;47607;-81
2021/11/27 09:10:43;;;;;;;;;0.00;0.00;;;;;10.35;100.00;98290.75;5056754;28;45393;-81
2021/11/27 09:13:09;;;;;;;;;0.50;0.00;;;;;10.29;100.00;98278.19;5058625;28;45476;-80
2021/11/27 09:15:35;;;;;;;;;0.00;0.00;;;;;10.27;100.00;98285.44;5060428;28;45536;-81
2021/11/27 09:18:02;;;;;;;;;2.00;0.00;;;;;10.43;100.00;98277.56;5060206;28;45244;-81
2021/11/27 09:20:32;;;;;;;;;0.00;0.00;;;;;10.52;100.00;98278.38;5060510;28;45302;-80
2021/11/27 09:22:57;;;;;;;;;0.00;0.00;;;;;10.80;100.00;98284.19;5064532;28;45445;-80
2021/11/27 09:25:25;;;;;;;;;0.00;0.00;;;;;10.90;100.00;98289.31;5063733;28;45392;-80
2021/11/27 09:27:50;;;;;;;;;0.00;0.00;;;;;10.68;100.00;98288.94;5066199;28;46122;-81
2021/11/27 09:30:16;;;;;;;;;0.00;0.00;;;;;10.66;100.00;98305.94;5059007;28;45426;-81
2021/11/27 09:32:42;;;;;;;;;0.00;0.00;;;;;10.64;100.00;98302.66;5061779;28;45540;-81
2021/11/27 09:35:08;;;;;;;;;1.75;0.00;;;;;10.73;100.00;98306.94;5057049;28;45505;-80
2021/11/27 09:37:33;;;;;;;;;0.00;0.00;;;;;10.58;100.00;98300.66;5071399;28;46825;-82
2021/11/27 09:39:59;;;;;;;;;0.00;0.00;;;;;10.66;100.00;98300.66;5062678;28;45467;-81
2021/11/27 09:42:26;;;;;;;;;0.00;0.00;;;;;10.61;100.00;98305.59;5062313;28;45429;-81
2021/11/27 09:44:54;;;;;;;;;0.00;0.00;;;;;10.47;100.00;98320.25;5063298;28;45497;-81
2021/11/27 09:47:20;;;;;;;;;0.00;0.00;;;;;10.52;100.00;98317.16;5062775;28;45329;-81
2021/11/27 09:49:48;;;;;;;;;1.75;0.00;;;;;10.61;100.00;98321.44;5078563;28;45343;-81
2021/11/27 09:52:13;;;;;;;;;1.25;0.00;;;;;10.60;100.00;98320.63;5062801;28;45215;-80
2021/11/27 09:54:40;;;;;;;;;0.00;0.00;;;;;10.60;100.00;98312.69;5062838;28;45342;-81
2021/11/27 09:57:09;;;;;;;;;1.00;1.00;;;;;10.62;100.00;98323.09;5069844;28;45654;-81
2021/11/27 09:59:36;;;;;;;;;1.50;0.00;;;;;10.85;100.00;98338.13;5058664;28;45363;-81
2021/11/27 10:02:06;;;;;;;;;1.00;1.00;;;;;11.06;100.00;98331.53;5063288;28;45223;-81
2021/11/27 10:04:33;;;;;;;;;1.00;1.00;;;;;11.38;100.00;98326.22;5049392;28;45458;-81
2021/11/27 10:06:59;;;;;;;;;1.00;1.00;;;;;11.61;100.00;98329.00;5062852;28;46191;-81
2021/11/27 10:09:26;;;;;;;;;0.50;0.50;;;;;11.94;100.00;98327.91;5062548;28;45338;-82
2021/11/27 10:11:53;;;;;;;;;2.50;0.25;;;;;12.13;100.00;98318.75;5055360;27;45156;-82
2021/11/27 10:14:19;;;;;;;;;7.00;0.00;;;;;12.13;100.00;98339.09;5062612;28;45526;-81
2021/11/27 10:16:56;;;;;;;;;1.00;1.00;;;;;12.01;100.00;98325.44;5070643;28;45505;-82
2021/11/27 10:19:23;;;;;;;;;2.00;0.00;;;;;11.85;100.00;98331.59;5082686;28;45398;-81
2021/11/27 10:21:54;;;;;;;;;0.25;0.00;;;;;11.63;100.00;98334.94;5082991;28;45398;-82
2021/11/27 10:24:24;;;;;;;;;2.00;1.00;;;;;12.01;100.00;98328.09;5082710;28;45418;-82
2021/11/27 10:26:50;;;;;;;;;0.75;0.00;;;;;12.24;100.00;98336.91;5082920;28;46166;-82
2021/11/27 10:29:24;;;;;;;;;1.25;0.00;;;;;12.58;100.00;98335.72;5085104;28;45478;-82
2021/11/27 10:32:03;;;;;;;;;1.00;1.00;;;;;12.84;100.00;98328.25;5075421;28;45386;-81
2021/11/27 10:34:28;;;;;;;;;1.00;1.00;;;;;12.67;100.00;98332.00;5060803;28;45557;-82
2021/11/27 10:36:54;;;;;;;;;2.75;1.25;;;;;12.47;100.00;98341.41;5062063;28;46305;-82
2021/11/27 10:39:19;;;;;;;;;5.00;2.00;;;;;12.41;100.00;98334.16;5060860;28;45284;-82
2021/11/27 10:42:01;;;;;;;;;3.00;2.00;;;;;12.16;100.00;98338.75;5065656;28;45442;-82
2021/11/27 10:44:37;;;;;;;;;7.00;1.75;;;;;12.25;100.00;98335.06;5068811;28;45352;-82
2021/11/27 10:47:10;;;;;;;;;3.00;2.00;;;;;12.23;100.00;98342.34;5056251;28;46132;-82
2021/11/27 10:49:36;;;;;;;;;6.25;2.25;;;;;12.23;100.00;98337.88;5065827;28;45664;-82
2021/11/27 10:52:09;;;;;;;;;1.00;1.00;;;;;12.19;100.00;98333.97;5071470;28;45458;-82
2021/11/27 10:54:48;;;;;;;;;1.50;1.50;;;;;12.21;100.00;98339.06;5077562;28;45441;-82
2021/11/27 10:57:36;;;;;;;;;2.50;1.00;;;;;12.17;100.00;98338.59;5065642;28;45496;-81
2021/11/27 11:00:27;;;;;;;;;2.75;1.00;;;;;12.28;100.00;98337.38;5062149;28;45311;-82
2021/11/27 11:02:53;;;;;;;;;8.00;2.50;;;;;12.16;100.00;98331.66;5062699;28;45425;-81
2021/11/27 11:05:19;;;;;;;;;1.75;1.00;;;;;12.45;100.00;98335.47;5063417;28;45516;-81
2021/11/27 11:07:58;;;;;;;;;1.75;1.75;;;;;12.58;100.00;98344.47;5060190;28;47603;-81
2021/11/27 11:10:32;;;;;;;;;5.00;2.75;;;;;12.41;100.00;98334.97;5061861;28;45378;-80
2021/11/27 11:13:07;;;;;;;;;2.25;1.00;;;;;12.39;100.00;98342.25;5049329;28;45381;-81
2021/11/27 11:15:35;;;;;;;;;4.25;3.00;;;;;12.31;100.00;98343.13;5066230;28;45386;-81
2021/11/27 11:18:03;;;;;;;;;3.00;1.50;;;;;12.14;100.00;98346.03;5061633;28;45406;-81
2021/11/27 11:20:29;;;;;;;;;2.00;1.00;;;;;11.94;100.00;98335.84;5078161;28;45196;-81
2021/11/27 11:22:58;;;;;;;;;5.00;1.50;;;;;12.20;100.00;98340.06;5082017;28;45291;-81
2021/11/27 11:25:24;;;;;;;;;2.00;2.00;;;;;12.19;100.00;98341.88;5081369;27;45393;-81
2021/11/27 11:27:49;;;;;;;;;2.75;1.00;;;;;12.18;100.00;98347.34;5078414;27;46373;-81
2021/11/27 11:30:19;;;;;;;;;1.00;1.00;;;;;12.03;100.00;98354.34;5069551;28;45411;-81